URMT 090900Z 09001MPS 8000 NSC M11/M12 Q1032 R07/850245 NOSIG RMK QFE734
QNH:(hPa/inHg/mmHg)1032 / 30.47 / 774
QFE:(hPa/inHg/mmHg)1015 / 29.98 / 761
Temperature-11
Dew Point-12
Visibility8000
Weather
Cloud Cover
Transition Altitude5000 ft.
Transition LevelFL60
SQUAWK